sensor_id;sensor_type;location;lat;lon;timestamp;pressure;altitude;pressure_sealevel;temperature;humidity
11011;BME280;5558;42.702;23.178;2023-01-05T00:00:09;94463.91;;;7.13;100.00
11011;BME280;5558;42.702;23.178;2023-01-05T00:02:36;94463.63;;;7.33;100.00
11011;BME280;5558;42.702;23.178;2023-01-05T00:05:03;94461.78;;;7.33;100.00
11011;BME280;5558;42.702;23.178;2023-01-05T00:07:30;94464.06;;;7.30;100.00
11011;BME280;5558;42.702;23.178;2023-01-05T00:09:58;94463.97;;;7.36;100.00
11011;BME280;5558;42.702;23.178;2023-01-05T00:12:25;94463.28;;;7.41;100.00
11011;BME280;5558;42.702;23.178;2023-01-05T00:15:09;94447.25;;;7.42;100.00
11011;BME280;5558;42.702;23.178;2023-01-05T00:17:53;94455.41;;;7.11;100.00
11011;BME280;5558;42.702;23.178;2023-01-05T00:20:37;94436.91;;;7.18;100.00
11011;BME280;5558;42.702;23.178;2023-01-05T00:23:21;94441.66;;;7.39;100.00
11011;BME280;5558;42.702;23.178;2023-01-05T00:25:49;94441.66;;;7.39;100.00
11011;BME280;5558;42.702;23.178;2023-01-05T00:28:16;94436.97;;;7.53;100.00
11011;BME280;5558;42.702;23.178;2023-01-05T00:30:44;94438.50;;;7.60;100.00
11011;BME280;5558;42.702;23.178;2023-01-05T00:33:14;94428.53;;;7.62;100.00
11011;BME280;5558;42.702;23.178;2023-01-05T00:35:42;94440.13;;;7.73;100.00
11011;BME280;5558;42.702;23.178;2023-01-05T00:38:09;94428.31;;;7.75;100.00
11011;BME280;5558;42.702;23.178;2023-01-05T00:40:36;94432.56;;;7.76;100.00
11011;BME280;5558;42.702;23.178;2023-01-05T00:43:04;94432.09;;;7.79;100.00
11011;BME280;5558;42.702;23.178;2023-01-05T00:45:31;94426.38;;;7.82;100.00
11011;BME280;5558;42.702;23.178;2023-01-05T00:47:58;94430.16;;;7.86;100.00
11011;BME280;5558;42.702;23.178;2023-01-05T00:50:24;94429.25;;;7.92;100.00
11011;BME280;5558;42.702;23.178;2023-01-05T00:52:51;94428.78;;;7.95;100.00
11011;BME280;5558;42.702;23.178;2023-01-05T00:55:18;94429.59;;;7.96;100.00
11011;BME280;5558;42.702;23.178;2023-01-05T00:57:45;94429.69;;;8.01;100.00
11011;BME280;5558;42.702;23.178;2023-01-05T01:00:15;94434.50;;;7.92;100.00
11011;BME280;5558;42.702;23.178;2023-01-05T01:02:43;94415.38;;;7.85;100.00
11011;BME280;5558;42.702;23.178;2023-01-05T01:05:10;94432.91;;;7.91;100.00
11011;BME280;5558;42.702;23.178;2023-01-05T01:07:37;94426.72;;;7.86;100.00
11011;BME280;5558;42.702;23.178;2023-01-05T01:10:05;94429.69;;;7.78;100.00
11011;BME280;5558;42.702;23.178;2023-01-05T01:12:32;94426.78;;;7.56;100.00
11011;BME280;5558;42.702;23.178;2023-01-05T01:14:59;94393.72;;;7.07;100.00
11011;BME280;5558;42.702;23.178;2023-01-05T01:17:27;94426.13;;;7.19;100.00
11011;BME280;5558;42.702;23.178;2023-01-05T01:19:53;94418.91;;;7.03;100.00
11011;BME280;5558;42.702;23.178;2023-01-05T01:22:20;94415.81;;;7.06;100.00
11011;BME280;5558;42.702;23.178;2023-01-05T01:24:47;94414.78;;;7.07;100.00
11011;BME280;5558;42.702;23.178;2023-01-05T01:27:14;94397.88;;;7.15;100.00
11011;BME280;5558;42.702;23.178;2023-01-05T01:29:40;94395.47;;;7.13;100.00
11011;BME280;5558;42.702;23.178;2023-01-05T01:32:07;94399.97;;;7.36;100.00
11011;BME280;5558;42.702;23.178;2023-01-05T01:34:35;94396.56;;;7.47;100.00
11011;BME280;5558;42.702;23.178;2023-01-05T01:37:03;94387.69;;;7.18;100.00
11011;BME280;5558;42.702;23.178;2023-01-05T01:39:30;94381.41;;;7.31;100.00
11011;BME280;5558;42.702;23.178;2023-01-05T01:41:57;94383.41;;;7.06;100.00
11011;BME280;5558;42.702;23.178;2023-01-05T01:44:55;94355.25;;;6.95;100.00
11011;BME280;5558;42.702;23.178;2023-01-05T01:47:27;94364.44;;;7.15;100.00
11011;BME280;5558;42.702;23.178;2023-01-05T01:49:58;94356.09;;;7.18;100.00
11011;BME280;5558;42.702;23.178;2023-01-05T01:52:28;94353.00;;;7.10;100.00
11011;BME280;5558;42.702;23.178;2023-01-05T01:54:56;94360.91;;;7.10;100.00
11011;BME280;5558;42.702;23.178;2023-01-05T01:57:25;94356.94;;;6.89;100.00
11011;BME280;5558;42.702;23.178;2023-01-05T01:59:53;94348.25;;;6.89;100.00
11011;BME280;5558;42.702;23.178;2023-01-05T02:02:21;94348.44;;;7.17;100.00
11011;BME280;5558;42.702;23.178;2023-01-05T02:04:49;94344.00;;;7.40;100.00
11011;BME280;5558;42.702;23.178;2023-01-05T02:07:18;94343.88;;;7.59;100.00
11011;BME280;5558;42.702;23.178;2023-01-05T02:09:45;94338.63;;;7.70;100.00
11011;BME280;5558;42.702;23.178;2023-01-05T02:12:22;94345.25;;;7.84;100.00
11011;BME280;5558;42.702;23.178;2023-01-05T02:14:59;94340.91;;;7.90;100.00
11011;BME280;5558;42.702;23.178;2023-01-05T02:17:38;94336.06;;;7.98;100.00
11011;BME280;5558;42.702;23.178;2023-01-05T02:26:18;94338.34;;;8.18;100.00
11011;BME280;5558;42.702;23.178;2023-01-05T02:29:05;94332.38;;;8.11;100.00
11011;BME280;5558;42.702;23.178;2023-01-05T02:31:42;94341.56;;;8.08;100.00
11011;BME280;5558;42.702;23.178;2023-01-05T02:34:18;94338.72;;;7.87;100.00
11011;BME280;5558;42.702;23.178;2023-01-05T02:36:51;94332.53;;;7.70;100.00
11011;BME280;5558;42.702;23.178;2023-01-05T02:39:24;94339.75;;;7.51;100.00
11011;BME280;5558;42.702;23.178;2023-01-05T02:41:56;94329.91;;;7.23;100.00
11011;BME280;5558;42.702;23.178;2023-01-05T02:44:27;94318.69;;;7.28;100.00
11011;BME280;5558;42.702;23.178;2023-01-05T02:47:00;94324.75;;;7.52;100.00
11011;BME280;5558;42.702;23.178;2023-01-05T02:49:28;94320.88;;;7.66;100.00
11011;BME280;5558;42.702;23.178;2023-01-05T02:51:56;94313.44;;;7.74;100.00
11011;BME280;5558;42.702;23.178;2023-01-05T02:54:26;94314.31;;;7.80;100.00
11011;BME280;5558;42.702;23.178;2023-01-05T02:56:59;94313.31;;;7.69;100.00
11011;BME280;5558;42.702;23.178;2023-01-05T02:59:33;94319.25;;;7.53;100.00
11011;BME280;5558;42.702;23.178;2023-01-05T03:02:05;94309.53;;;7.54;100.00
11011;BME280;5558;42.702;23.178;2023-01-05T03:04:37;94303.34;;;7.60;100.00
11011;BME280;5558;42.702;23.178;2023-01-05T03:07:08;94293.47;;;7.67;100.00
11011;BME280;5558;42.702;23.178;2023-01-05T03:09:38;94287.66;;;7.76;100.00
11011;BME280;5558;42.702;23.178;2023-01-05T03:12:11;94296.81;;;7.74;100.00
11011;BME280;5558;42.702;23.178;2023-01-05T03:14:59;94276.97;;;7.83;100.00
11011;BME280;5558;42.702;23.178;2023-01-05T03:17:31;94268.72;;;7.91;100.00
11011;BME280;5558;42.702;23.178;2023-01-05T03:20:00;94271.22;;;7.97;100.00
11011;BME280;5558;42.702;23.178;2023-01-05T03:22:29;94258.84;;;7.98;100.00
11011;BME280;5558;42.702;23.178;2023-01-05T03:25:15;94236.22;;;7.62;100.00
11011;BME280;5558;42.702;23.178;2023-01-05T03:28:03;94260.69;;;7.86;100.00
11011;BME280;5558;42.702;23.178;2023-01-05T03:30:56;94261.50;;;7.75;100.00
11011;BME280;5558;42.702;23.178;2023-01-05T03:33:48;94252.69;;;7.81;100.00
11011;BME280;5558;42.702;23.178;2023-01-05T03:36:40;94255.59;;;7.68;100.00
11011;BME280;5558;42.702;23.178;2023-01-05T03:39:10;94247.22;;;7.71;100.00
11011;BME280;5558;42.702;23.178;2023-01-05T03:41:38;94253.06;;;7.61;100.00
11011;BME280;5558;42.702;23.178;2023-01-05T03:44:06;94259.72;;;7.64;100.00
11011;BME280;5558;42.702;23.178;2023-01-05T03:46:33;94263.03;;;7.71;100.00
11011;BME280;5558;42.702;23.178;2023-01-05T03:49:01;94257.75;;;7.71;100.00
11011;BME280;5558;42.702;23.178;2023-01-05T03:51:27;94251.47;;;7.60;100.00
11011;BME280;5558;42.702;23.178;2023-01-05T03:53:54;94253.63;;;7.63;100.00
11011;BME280;5558;42.702;23.178;2023-01-05T03:56:21;94236.81;;;7.41;100.00
11011;BME280;5558;42.702;23.178;2023-01-05T03:58:48;94256.59;;;7.67;100.00
11011;BME280;5558;42.702;23.178;2023-01-05T04:01:15;94256.59;;;7.67;100.00
11011;BME280;5558;42.702;23.178;2023-01-05T04:03:42;94250.94;;;7.12;100.00
11011;BME280;5558;42.702;23.178;2023-01-05T04:06:10;94236.59;;;7.19;100.00
11011;BME280;5558;42.702;23.178;2023-01-05T04:08:37;94240.97;;;7.25;100.00
11011;BME280;5558;42.702;23.178;2023-01-05T04:11:15;94243.03;;;7.23;100.00
11011;BME280;5558;42.702;23.178;2023-01-05T04:13:42;94229.75;;;7.18;100.00
11011;BME280;5558;42.702;23.178;2023-01-05T04:16:08;94224.13;;;6.92;100.00
11011;BME280;5558;42.702;23.178;2023-01-05T04:18:35;94241.66;;;7.09;100.00
11011;BME280;5558;42.702;23.178;2023-01-05T04:21:03;94226.63;;;6.87;100.00
11011;BME280;5558;42.702;23.178;2023-01-05T04:23:31;94233.28;;;6.78;100.00
11011;BME280;5558;42.702;23.178;2023-01-05T04:25:58;94225.66;;;6.47;100.00
11011;BME280;5558;42.702;23.178;2023-01-05T04:28:25;94219.47;;;6.41;100.00
11011;BME280;5558;42.702;23.178;2023-01-05T04:30:53;94225.09;;;6.15;100.00
11011;BME280;5558;42.702;23.178;2023-01-05T04:33:21;94231.38;;;6.14;100.00
11011;BME280;5558;42.702;23.178;2023-01-05T04:35:48;94227.38;;;6.11;100.00
11011;BME280;5558;42.702;23.178;2023-01-05T04:38:15;94229.91;;;5.88;100.00
11011;BME280;5558;42.702;23.178;2023-01-05T04:40:46;94234.84;;;5.96;100.00
11011;BME280;5558;42.702;23.178;2023-01-05T04:43:13;94235.44;;;5.98;100.00
11011;BME280;5558;42.702;23.178;2023-01-05T04:45:40;94243.69;;;6.02;100.00
11011;BME280;5558;42.702;23.178;2023-01-05T04:48:06;94243.09;;;6.00;100.00
11011;BME280;5558;42.702;23.178;2023-01-05T04:50:33;94240.75;;;6.10;100.00
11011;BME280;5558;42.702;23.178;2023-01-05T04:53:00;94223.06;;;6.17;100.00
11011;BME280;5558;42.702;23.178;2023-01-05T04:55:26;94236.94;;;6.36;100.00
11011;BME280;5558;42.702;23.178;2023-01-05T04:57:55;94235.91;;;6.37;100.00
11011;BME280;5558;42.702;23.178;2023-01-05T05:00:21;94243.94;;;6.42;100.00
11011;BME280;5558;42.702;23.178;2023-01-05T05:02:48;94243.94;;;6.42;100.00
11011;BME280;5558;42.702;23.178;2023-01-05T05:05:15;94250.72;;;6.49;100.00
11011;BME280;5558;42.702;23.178;2023-01-05T05:07:42;94251.66;;;6.25;100.00
11011;BME280;5558;42.702;23.178;2023-01-05T05:10:09;94250.81;;;6.43;100.00
11011;BME280;5558;42.702;23.178;2023-01-05T05:12:36;94248.34;;;6.30;100.00
11011;BME280;5558;42.702;23.178;2023-01-05T05:15:05;94248.44;;;6.23;100.00
11011;BME280;5558;42.702;23.178;2023-01-05T05:17:32;94254.97;;;6.21;100.00
11011;BME280;5558;42.702;23.178;2023-01-05T05:19:58;94250.13;;;6.17;100.00
11011;BME280;5558;42.702;23.178;2023-01-05T05:22:25;94252.09;;;6.22;100.00
11011;BME280;5558;42.702;23.178;2023-01-05T05:24:52;94256.88;;;6.13;100.00
11011;BME280;5558;42.702;23.178;2023-01-05T05:27:19;94249.22;;;5.76;100.00
11011;BME280;5558;42.702;23.178;2023-01-05T05:29:46;94245.09;;;6.16;100.00
11011;BME280;5558;42.702;23.178;2023-01-05T05:32:14;94244.38;;;6.09;100.00
11011;BME280;5558;42.702;23.178;2023-01-05T05:34:41;94235.88;;;5.77;100.00
11011;BME280;5558;42.702;23.178;2023-01-05T05:37:07;94233.81;;;5.97;100.00
11011;BME280;5558;42.702;23.178;2023-01-05T05:39:34;94231.91;;;6.04;100.00
11011;BME280;5558;42.702;23.178;2023-01-05T05:42:01;94227.56;;;5.98;100.00
11011;BME280;5558;42.702;23.178;2023-01-05T05:44:27;94219.88;;;5.79;100.00
11011;BME280;5558;42.702;23.178;2023-01-05T05:46:54;94210.28;;;5.91;100.00
11011;BME280;5558;42.702;23.178;2023-01-05T05:49:22;94208.16;;;5.81;100.00
11011;BME280;5558;42.702;23.178;2023-01-05T05:51:49;94207.50;;;5.86;100.00
11011;BME280;5558;42.702;23.178;2023-01-05T05:54:16;94204.47;;;6.00;100.00
11011;BME280;5558;42.702;23.178;2023-01-05T05:56:43;94203.78;;;5.57;100.00
11011;BME280;5558;42.702;23.178;2023-01-05T05:59:09;94202.97;;;5.75;100.00
11011;BME280;5558;42.702;23.178;2023-01-05T06:01:36;94209.00;;;5.75;100.00
11011;BME280;5558;42.702;23.178;2023-01-05T06:04:03;94197.53;;;5.22;100.00
11011;BME280;5558;42.702;23.178;2023-01-05T06:06:31;94197.91;;;5.44;100.00
11011;BME280;5558;42.702;23.178;2023-01-05T06:08:58;94194.78;;;5.17;100.00
11011;BME280;5558;42.702;23.178;2023-01-05T06:11:24;94195.84;;;5.46;100.00
11011;BME280;5558;42.702;23.178;2023-01-05T06:13:51;94192.03;;;5.60;100.00
11011;BME280;5558;42.702;23.178;2023-01-05T06:16:18;94182.41;;;5.72;100.00
11011;BME280;5558;42.702;23.178;2023-01-05T06:18:45;94184.34;;;5.65;100.00
11011;BME280;5558;42.702;23.178;2023-01-05T06:21:11;94186.03;;;5.89;100.00
11011;BME280;5558;42.702;23.178;2023-01-05T06:23:39;94174.91;;;6.05;100.00
11011;BME280;5558;42.702;23.178;2023-01-05T06:26:06;94182.75;;;6.35;100.00
11011;BME280;5558;42.702;23.178;2023-01-05T06:28:33;94182.59;;;6.59;100.00
11011;BME280;5558;42.702;23.178;2023-01-05T06:30:59;94179.28;;;6.87;100.00
11011;BME280;5558;42.702;23.178;2023-01-05T06:33:26;94177.00;;;7.13;100.00
11011;BME280;5558;42.702;23.178;2023-01-05T06:35:53;94171.34;;;7.33;100.00
11011;BME280;5558;42.702;23.178;2023-01-05T06:38:19;94171.63;;;7.71;100.00
11011;BME280;5558;42.702;23.178;2023-01-05T06:40:47;94181.34;;;7.99;100.00
11011;BME280;5558;42.702;23.178;2023-01-05T06:43:14;94178.38;;;7.67;100.00
11011;BME280;5558;42.702;23.178;2023-01-05T06:45:41;94192.38;;;7.68;100.00
11011;BME280;5558;42.702;23.178;2023-01-05T06:48:08;94190.88;;;8.00;100.00
11011;BME280;5558;42.702;23.178;2023-01-05T06:50:35;94186.75;;;7.64;100.00
11011;BME280;5558;42.702;23.178;2023-01-05T06:53:02;94180.59;;;7.59;100.00
11011;BME280;5558;42.702;23.178;2023-01-05T06:55:29;94184.53;;;7.21;100.00
11011;BME280;5558;42.702;23.178;2023-01-05T06:57:57;94182.91;;;7.20;100.00
11011;BME280;5558;42.702;23.178;2023-01-05T07:00:23;94188.31;;;7.14;100.00
11011;BME280;5558;42.702;23.178;2023-01-05T07:02:50;94172.53;;;7.02;100.00
11011;BME280;5558;42.702;23.178;2023-01-05T07:05:17;94166.13;;;6.87;100.00
11011;BME280;5558;42.702;23.178;2023-01-05T07:07:44;94169.31;;;6.77;100.00
11011;BME280;5558;42.702;23.178;2023-01-05T07:10:10;94176.28;;;6.72;100.00
11011;BME280;5558;42.702;23.178;2023-01-05T07:12:37;94170.13;;;6.89;100.00
11011;BME280;5558;42.702;23.178;2023-01-05T07:15:07;94177.56;;;6.81;100.00
11011;BME280;5558;42.702;23.178;2023-01-05T07:17:34;94168.84;;;6.92;100.00
11011;BME280;5558;42.702;23.178;2023-01-05T07:20:01;94173.00;;;6.99;100.00
11011;BME280;5558;42.702;23.178;2023-01-05T07:22:28;94175.28;;;7.07;100.00
11011;BME280;5558;42.702;23.178;2023-01-05T07:24:56;94136.16;;;6.88;100.00
11011;BME280;5558;42.702;23.178;2023-01-05T07:27:23;94162.56;;;7.16;100.00
11011;BME280;5558;42.702;23.178;2023-01-05T07:29:50;94164.59;;;7.37;100.00
11011;BME280;5558;42.702;23.178;2023-01-05T07:32:18;94152.56;;;7.41;100.00
11011;BME280;5558;42.702;23.178;2023-01-05T07:34:46;94157.91;;;7.58;100.00
11011;BME280;5558;42.702;23.178;2023-01-05T07:37:13;94157.63;;;7.71;100.00
11011;BME280;5558;42.702;23.178;2023-01-05T07:39:40;94147.19;;;7.76;100.00
11011;BME280;5558;42.702;23.178;2023-01-05T07:42:07;94138.81;;;7.51;100.00
11011;BME280;5558;42.702;23.178;2023-01-05T07:44:33;94136.94;;;7.51;100.00
11011;BME280;5558;42.702;23.178;2023-01-05T07:47:00;94147.94;;;7.60;100.00
11011;BME280;5558;42.702;23.178;2023-01-05T07:49:28;94146.00;;;7.55;100.00
11011;BME280;5558;42.702;23.178;2023-01-05T07:51:55;94137.47;;;7.36;100.00
11011;BME280;5558;42.702;23.178;2023-01-05T07:54:22;94142.69;;;7.48;100.00
11011;BME280;5558;42.702;23.178;2023-01-05T07:56:49;94138.19;;;7.60;100.00
11011;BME280;5558;42.702;23.178;2023-01-05T07:59:16;94128.41;;;7.72;100.00
11011;BME280;5558;42.702;23.178;2023-01-05T08:01:42;94129.09;;;7.79;100.00
11011;BME280;5558;42.702;23.178;2023-01-05T08:04:09;94132.13;;;7.60;100.00
11011;BME280;5558;42.702;23.178;2023-01-05T08:06:38;94134.00;;;7.47;100.00
11011;BME280;5558;42.702;23.178;2023-01-05T08:09:04;94121.19;;;7.39;100.00
11011;BME280;5558;42.702;23.178;2023-01-05T08:11:45;94127.84;;;7.42;100.00
11011;BME280;5558;42.702;23.178;2023-01-05T08:14:11;94131.53;;;7.69;100.00
11011;BME280;5558;42.702;23.178;2023-01-05T08:16:38;94131.75;;;7.96;100.00
11011;BME280;5558;42.702;23.178;2023-01-05T08:19:07;94134.06;;;7.92;100.00
11011;BME280;5558;42.702;23.178;2023-01-05T08:21:34;94131.63;;;8.19;100.00
11011;BME280;5558;42.702;23.178;2023-01-05T08:24:03;94130.50;;;8.43;100.00
11011;BME280;5558;42.702;23.178;2023-01-05T08:26:29;94136.00;;;8.75;100.00
11011;BME280;5558;42.702;23.178;2023-01-05T08:28:56;94136.06;;;8.96;100.00
11011;BME280;5558;42.702;23.178;2023-01-05T08:31:25;94133.81;;;9.05;100.00
11011;BME280;5558;42.702;23.178;2023-01-05T08:33:54;94104.47;;;8.85;95.45
11011;BME280;5558;42.702;23.178;2023-01-05T08:36:23;94137.94;;;9.17;94.48
11011;BME280;5558;42.702;23.178;2023-01-05T08:38:51;94137.84;;;8.74;93.65
11011;BME280;5558;42.702;23.178;2023-01-05T08:41:20;94139.94;;;9.10;94.61
11011;BME280;5558;42.702;23.178;2023-01-05T08:43:51;94135.88;;;9.19;91.73
11011;BME280;5558;42.702;23.178;2023-01-05T08:46:18;94135.75;;;8.93;90.42
11011;BME280;5558;42.702;23.178;2023-01-05T08:48:47;94128.50;;;9.21;90.12
11011;BME280;5558;42.702;23.178;2023-01-05T08:51:14;94130.16;;;9.27;89.79
11011;BME280;5558;42.702;23.178;2023-01-05T08:53:41;94121.47;;;9.10;89.16
11011;BME280;5558;42.702;23.178;2023-01-05T08:56:08;94124.56;;;9.24;88.84
11011;BME280;5558;42.702;23.178;2023-01-05T08:58:36;94118.81;;;9.10;87.14
11011;BME280;5558;42.702;23.178;2023-01-05T09:01:05;94103.63;;;9.39;87.31
11011;BME280;5558;42.702;23.178;2023-01-05T09:03:32;94107.00;;;9.34;87.15
11011;BME280;5558;42.702;23.178;2023-01-05T09:05:59;94096.97;;;9.58;86.27
11011;BME280;5558;42.702;23.178;2023-01-05T09:08:28;94091.50;;;9.64;84.86
11011;BME280;5558;42.702;23.178;2023-01-05T09:10:54;94082.44;;;9.82;84.77
11011;BME280;5558;42.702;23.178;2023-01-05T09:13:21;94079.69;;;9.99;84.39
11011;BME280;5558;42.702;23.178;2023-01-05T09:15:49;94071.13;;;10.13;81.98
11011;BME280;5558;42.702;23.178;2023-01-05T09:18:16;94067.84;;;10.01;80.92
11011;BME280;5558;42.702;23.178;2023-01-05T09:20:43;94044.16;;;10.11;81.00
11011;BME280;5558;42.702;23.178;2023-01-05T09:23:09;94040.63;;;10.32;80.89
11011;BME280;5558;42.702;23.178;2023-01-05T09:25:37;94039.09;;;10.41;80.00
11011;BME280;5558;42.702;23.178;2023-01-05T09:28:04;94031.34;;;10.30;80.17
11011;BME280;5558;42.702;23.178;2023-01-05T09:30:31;94037.19;;;10.37;80.05
11011;BME280;5558;42.702;23.178;2023-01-05T09:32:59;94041.25;;;10.13;78.29
11011;BME280;5558;42.702;23.178;2023-01-05T09:35:26;94030.16;;;10.16;80.09
11011;BME280;5558;42.702;23.178;2023-01-05T09:37:52;94017.63;;;10.33;78.52
11011;BME280;5558;42.702;23.178;2023-01-05T09:40:19;94010.75;;;10.37;77.74
11011;BME280;5558;42.702;23.178;2023-01-05T09:42:47;94005.75;;;10.40;78.56
11011;BME280;5558;42.702;23.178;2023-01-05T09:45:22;93990.31;;;10.27;77.76
11011;BME280;5558;42.702;23.178;2023-01-05T09:47:50;93986.91;;;10.32;77.89
11011;BME280;5558;42.702;23.178;2023-01-05T09:50:20;93981.38;;;10.33;78.58
11011;BME280;5558;42.702;23.178;2023-01-05T09:52:50;93981.41;;;10.38;78.34
11011;BME280;5558;42.702;23.178;2023-01-05T09:55:20;93975.06;;;10.39;76.60
11011;BME280;5558;42.702;23.178;2023-01-05T09:57:51;93976.50;;;10.57;76.25
11011;BME280;5558;42.702;23.178;2023-01-05T10:00:19;93969.66;;;10.71;77.36
11011;BME280;5558;42.702;23.178;2023-01-05T10:02:50;93971.75;;;10.64;74.73
11011;BME280;5558;42.702;23.178;2023-01-05T10:05:20;93969.09;;;10.64;74.81
11011;BME280;5558;42.702;23.178;2023-01-05T10:07:50;93971.25;;;10.67;73.85
11011;BME280;5558;42.702;23.178;2023-01-05T10:10:32;93960.97;;;10.75;74.54
11011;BME280;5558;42.702;23.178;2023-01-05T10:13:06;93969.13;;;10.69;72.01
11011;BME280;5558;42.702;23.178;2023-01-05T10:15:38;93970.50;;;10.76;72.95
11011;BME280;5558;42.702;23.178;2023-01-05T10:18:11;93958.56;;;10.74;72.33
11011;BME280;5558;42.702;23.178;2023-01-05T10:20:45;93965.75;;;10.78;71.75
11011;BME280;5558;42.702;23.178;2023-01-05T10:23:26;93953.25;;;10.74;73.35
11011;BME280;5558;42.702;23.178;2023-01-05T10:26:03;93961.59;;;10.92;71.29
11011;BME280;5558;42.702;23.178;2023-01-05T10:28:35;93955.22;;;10.88;71.25
11011;BME280;5558;42.702;23.178;2023-01-05T10:31:14;93957.09;;;10.98;71.12
11011;BME280;5558;42.702;23.178;2023-01-05T10:33:47;93955.22;;;10.93;71.02
11011;BME280;5558;42.702;23.178;2023-01-05T10:36:29;93944.34;;;10.85;71.00
11011;BME280;5558;42.702;23.178;2023-01-05T10:39:05;93932.22;;;11.04;72.44
11011;BME280;5558;42.702;23.178;2023-01-05T10:41:42;93924.53;;;10.97;70.35
11011;BME280;5558;42.702;23.178;2023-01-05T10:44:51;93919.53;;;11.11;70.44
11011;BME280;5558;42.702;23.178;2023-01-05T10:47:20;93921.69;;;11.19;69.23
11011;BME280;5558;42.702;23.178;2023-01-05T10:49:48;93923.81;;;11.32;68.45
11011;BME280;5558;42.702;23.178;2023-01-05T10:52:18;93895.19;;;11.29;68.37
11011;BME280;5558;42.702;23.178;2023-01-05T10:54:47;93918.28;;;11.54;67.82
11011;BME280;5558;42.702;23.178;2023-01-05T10:57:36;93905.56;;;11.51;65.93
11011;BME280;5558;42.702;23.178;2023-01-05T11:00:14;93907.19;;;11.57;65.50
11011;BME280;5558;42.702;23.178;2023-01-05T11:02:46;93905.88;;;11.64;64.98
11011;BME280;5558;42.702;23.178;2023-01-05T11:05:29;93900.56;;;11.69;64.58
11011;BME280;5558;42.702;23.178;2023-01-05T11:08:00;93904.28;;;11.83;64.62
11011;BME280;5558;42.702;23.178;2023-01-05T11:10:30;93902.94;;;11.91;63.42
11011;BME280;5558;42.702;23.178;2023-01-05T11:13:02;93900.56;;;11.94;62.22
11011;BME280;5558;42.702;23.178;2023-01-05T11:15:31;93905.88;;;11.99;61.74
11011;BME280;5558;42.702;23.178;2023-01-05T11:17:59;93905.88;;;11.94;62.99
11011;BME280;5558;42.702;23.178;2023-01-05T11:20:27;93903.75;;;12.06;62.37
11011;BME280;5558;42.702;23.178;2023-01-05T11:22:54;93901.09;;;12.01;61.41
11011;BME280;5558;42.702;23.178;2023-01-05T11:25:27;93897.13;;;12.04;62.28
11011;BME280;5558;42.702;23.178;2023-01-05T11:28:18;93886.22;;;12.20;61.57
11011;BME280;5558;42.702;23.178;2023-01-05T11:30:57;93887.22;;;12.35;60.86
11011;BME280;5558;42.702;23.178;2023-01-05T11:33:26;93885.38;;;12.40;60.17
11011;BME280;5558;42.702;23.178;2023-01-05T11:35:54;93885.84;;;12.57;59.88
11011;BME280;5558;42.702;23.178;2023-01-05T11:38:24;93879.22;;;12.55;59.49
11011;BME280;5558;42.702;23.178;2023-01-05T11:40:53;93889.63;;;12.46;59.82
11011;BME280;5558;42.702;23.178;2023-01-05T11:43:22;93883.19;;;12.62;59.99
11011;BME280;5558;42.702;23.178;2023-01-05T11:45:51;93882.16;;;12.53;58.10
11011;BME280;5558;42.702;23.178;2023-01-05T11:48:21;93870.16;;;12.66;58.14
11011;BME280;5558;42.702;23.178;2023-01-05T11:50:50;93871.16;;;12.80;57.89
11011;BME280;5558;42.702;23.178;2023-01-05T11:53:24;93878.53;;;12.93;58.24
11011;BME280;5558;42.702;23.178;2023-01-05T11:56:00;93866.06;;;12.93;57.19
11011;BME280;5558;42.702;23.178;2023-01-05T11:58:31;93866.34;;;12.87;57.31
11011;BME280;5558;42.702;23.178;2023-01-05T12:01:42;93861.81;;;12.87;57.41
11011;BME280;5558;42.702;23.178;2023-01-05T12:04:24;93864.97;;;13.04;57.49
11011;BME280;5558;42.702;23.178;2023-01-05T12:07:09;93872.34;;;13.17;56.19
11011;BME280;5558;42.702;23.178;2023-01-05T12:09:41;93871.22;;;13.23;55.96
11011;BME280;5558;42.702;23.178;2023-01-05T12:12:45;93872.28;;;13.27;56.07
11011;BME280;5558;42.702;23.178;2023-01-05T12:15:34;93862.31;;;13.43;56.18
11011;BME280;5558;42.702;23.178;2023-01-05T12:18:10;93855.22;;;13.33;55.08
11011;BME280;5558;42.702;23.178;2023-01-05T12:20:53;93847.78;;;13.35;54.72
11011;BME280;5558;42.702;23.178;2023-01-05T12:23:38;93838.22;;;13.29;55.77
11011;BME280;5558;42.702;23.178;2023-01-05T12:26:22;93830.53;;;13.28;55.53
11011;BME280;5558;42.702;23.178;2023-01-05T12:29:10;93814.13;;;13.16;54.83
11011;BME280;5558;42.702;23.178;2023-01-05T12:31:47;93807.75;;;13.17;55.66
11011;BME280;5558;42.702;23.178;2023-01-05T12:34:31;93797.16;;;13.12;56.79
11011;BME280;5558;42.702;23.178;2023-01-05T12:37:15;93799.81;;;13.12;56.63
11011;BME280;5558;42.702;23.178;2023-01-05T12:40:06;93801.69;;;13.11;56.03
11011;BME280;5558;42.702;23.178;2023-01-05T12:42:56;93796.25;;;12.83;55.83
11011;BME280;5558;42.702;23.178;2023-01-05T12:45:55;93800.72;;;12.87;56.95
11011;BME280;5558;42.702;23.178;2023-01-05T12:48:28;93810.44;;;12.63;56.67
11011;BME280;5558;42.702;23.178;2023-01-05T12:51:01;93809.31;;;12.69;57.20
11011;BME280;5558;42.702;23.178;2023-01-05T12:53:38;93815.44;;;12.70;58.06
11011;BME280;5558;42.702;23.178;2023-01-05T12:56:14;93813.34;;;12.57;56.75
11011;BME280;5558;42.702;23.178;2023-01-05T12:58:48;93808.69;;;12.34;57.73
11011;BME280;5558;42.702;23.178;2023-01-05T13:01:21;93806.78;;;12.49;57.97
11011;BME280;5558;42.702;23.178;2023-01-05T13:03:55;93818.22;;;12.40;57.81
11011;BME280;5558;42.702;23.178;2023-01-05T13:06:25;93815.56;;;12.40;58.29
11011;BME280;5558;42.702;23.178;2023-01-05T13:08:58;93810.78;;;12.37;58.29
11011;BME280;5558;42.702;23.178;2023-01-05T13:11:30;93825.09;;;12.46;57.06
11011;BME280;5558;42.702;23.178;2023-01-05T13:14:04;93825.13;;;12.41;58.30
11011;BME280;5558;42.702;23.178;2023-01-05T13:16:36;93822.47;;;12.41;58.02
11011;BME280;5558;42.702;23.178;2023-01-05T13:19:09;93824.06;;;12.37;58.67
11011;BME280;5558;42.702;23.178;2023-01-05T13:21:42;93821.41;;;12.37;58.65
11011;BME280;5558;42.702;23.178;2023-01-05T13:24:12;93825.41;;;12.34;58.13